Williamsburg, New Mexico
Current Conditions -  °F | °C
As of 12:53 AM on Thursday 18 Dec 2014 (Local Time) from KTCS Reporting Station
Overcast Overcast  
Wind Chill: 37°   Ceiling: 8000
Heat Index: 40°   Visibility: 10mi
Dew Point: 30°   Wind: 5mph
Humidity: 68%   Direction: 250°WSW
Pressure: 30.1"   Gusts: NA
Location:  33.12°N, 107.29°W
Report Text: KTCS 180753Z AUTO 25004KT 10SM OVC080 04/M01 A3010 RMK AO2 SLP163 T00441011 TSNO
Loading
Personal Weather Stations






























Interactive Weather Map New forecast layout! Learn more

10-Day Weather Forecast

Advertisements
Track Severe Weather on mobile